• Join FlightAware (Why Join?)
  • Login
  • US Flag 
02:35AM EDT


 

Airport Tracker/Info


-or-


 

Live Flight TrackerFlight Track Log ✈ KAP3 ✈ 02-Jun-2013 ✈ KBOS - KACK

Flight Track Log - Related Links

Times and Time Zones

All times are in EDT time to prevent confusion due to time zone crossing. See the KAP3 flight status page for this flight to view local times or setup timezone preferences in your user account.

Time Position Orientation Groundspeed Altitude Reporting Facility
EDT Latitude Longitude Course Direction KTS MPH feet Rate Location/Type
04:22PM 42.3667 -71.0167 236° Southwest 95 109 600  Level KA90
04:23PM 42.3500 -71.0500 236° Southwest 89 102 1,500 780 Climbing KA90
04:24PM 42.3333 -71.0667 216° Southwest 85 98 2,300 600 Climbing KA90
04:25PM 42.3000 -71.0833 200° South 90 104 2,800 600 Climbing KA90
04:26PM 42.2833 -71.0500 124° Southeast 111 128 3,500 660 Climbing KA90
04:27PM 42.2667 -71.0167 124° Southeast 111 128 4,200 600 Climbing KA90
04:28PM 42.2333 -70.9833 143° Southeast 152 175 4,700 360 Climbing KA90
04:29PM 42.2167 -70.9333 114° Southeast 179 206 5,000 120 Climbing KA90
04:30PM 42.2000 -70.8667 109° East 183 211 5,000  Level KA90
04:31PM 42.1833 -70.8000 109° East 189 217 5,000 -60 Level KA90
04:32PM 42.1667 -70.7333 109° East 196 226 4,900 -120 Descending KA90
04:34PM 42.1603 -70.6656 97° East  Level FlightAware Approximate
04:41PM 41.8962 -70.4874 114° Southeast  Level Estimated
04:42PM 41.9105 -70.4340 70° East  Level FlightAware Approximate
04:43PM 41.9247 -70.3806 70° East  Level FlightAware Approximate
04:44PM 41.9389 -70.3272 70° East  Level FlightAware Approximate
04:45PM 41.9532 -70.2738 70° East  Level FlightAware Approximate
04:46PM 41.9120 -70.2611 180° South  Level Estimated
04:47PM 41.8750 -70.2339 151° Southeast  Level FlightAware Approximate
04:48PM 41.8379 -70.2068 151° Southeast  Level FlightAware Approximate
04:49PM 41.8009 -70.1797 151° Southeast  Level FlightAware Approximate
04:50PM 41.7638 -70.1526 151° Southeast  Level FlightAware Approximate
04:51PM 41.7268 -70.1256 151° Southeast  Level FlightAware Approximate
04:52PM 41.6897 -70.0985 151° Southeast  Level FlightAware Approximate
04:53PM 41.6526 -70.0716 151° Southeast  Level FlightAware Approximate
04:54PM 41.6155 -70.0446 151° Southeast  Level FlightAware Approximate
04:55PM 41.5784 -70.0177 151° Southeast  Level FlightAware Approximate
04:56PM 41.5712 -70.0391 189° South  Level FlightAware Approximate
04:57PM 41.5294 -70.0474 189° South  Level FlightAware Approximate
04:58PM 41.4874 -70.0500 180° South  Level FlightAware Approximate
04:59PM 41.4451 -70.0500 180° South  Level FlightAware Approximate
05:00PM 41.4030 -70.0500 180° South  Level FlightAware Approximate
05:01PM 41.3607 -70.0500 180° South  Level FlightAware Approximate
05:02PM 41.3186 -70.0500 180° South  Level FlightAware Approximate
05:03PM 41.2763 -70.0500 180° South  Level FlightAware Approximate
05:04PM 41.2500 -70.0500 180° South  Level FlightAware Approximate
05:05PM 41.2531 -70.0603 180° South  Level Estimated
05:06PM 41.2531 -70.0603 180° South  Level Estimated
05:07PM 41.2531 -70.0603 180° South  Level Estimated
05:08PM 41.2531 -70.0603 180° South  Level Estimated
05:09PM 41.2531 -70.0603 180° South  Level Estimated
05:10PM 41.2531 -70.0603 180° South  Level Estimated
05:11PM 41.2531 -70.0603 180° South  Level Estimated
05:12PM 41.2531 -70.0603 180° South  Level Estimated
05:13PM 41.2531 -70.0603 180° South  Level Estimated
05:14PM 41.2531 -70.0603 180° South  Level Estimated
05:15PM 41.2531 -70.0603 180° South  Level Estimated